sensor_id;sensor_type;location;lat;lon;timestamp;P1;durP1;ratioP1;P2;durP2;ratioP2
173;SDS011;75;48.784;9.364;2023-02-22T00:01:28;18.30;;;11.13;;
173;SDS011;75;48.784;9.364;2023-02-22T00:04:30;17.90;;;11.50;;
173;SDS011;75;48.784;9.364;2023-02-22T00:07:19;20.47;;;12.00;;
173;SDS011;75;48.784;9.364;2023-02-22T00:10:04;18.97;;;12.10;;
173;SDS011;75;48.784;9.364;2023-02-22T00:12:56;19.37;;;12.60;;
173;SDS011;75;48.784;9.364;2023-02-22T00:15:40;18.30;;;12.00;;
173;SDS011;75;48.784;9.364;2023-02-22T00:18:25;22.20;;;12.70;;
173;SDS011;75;48.784;9.364;2023-02-22T00:21:11;19.90;;;12.17;;
173;SDS011;75;48.784;9.364;2023-02-22T00:23:57;26.80;;;12.43;;
173;SDS011;75;48.784;9.364;2023-02-22T00:26:41;19.33;;;12.23;;
173;SDS011;75;48.784;9.364;2023-02-22T00:29:26;19.67;;;12.90;;
173;SDS011;75;48.784;9.364;2023-02-22T00:32:11;22.60;;;13.60;;
173;SDS011;75;48.784;9.364;2023-02-22T00:34:58;25.20;;;14.03;;
173;SDS011;75;48.784;9.364;2023-02-22T00:37:42;27.73;;;14.33;;
173;SDS011;75;48.784;9.364;2023-02-22T00:40:31;18.37;;;11.83;;
173;SDS011;75;48.784;9.364;2023-02-22T00:43:16;19.93;;;12.33;;
173;SDS011;75;48.784;9.364;2023-02-22T00:46:01;22.07;;;13.07;;
173;SDS011;75;48.784;9.364;2023-02-22T00:48:46;22.70;;;15.33;;
173;SDS011;75;48.784;9.364;2023-02-22T00:51:31;22.40;;;15.17;;
173;SDS011;75;48.784;9.364;2023-02-22T00:54:16;25.10;;;15.30;;
173;SDS011;75;48.784;9.364;2023-02-22T00:57:02;24.83;;;15.20;;
173;SDS011;75;48.784;9.364;2023-02-22T00:59:47;24.20;;;14.00;;
173;SDS011;75;48.784;9.364;2023-02-22T01:02:32;33.70;;;18.67;;
173;SDS011;75;48.784;9.364;2023-02-22T01:05:20;30.70;;;17.07;;
173;SDS011;75;48.784;9.364;2023-02-22T01:08:06;28.00;;;17.13;;
173;SDS011;75;48.784;9.364;2023-02-22T01:10:51;35.87;;;20.23;;
173;SDS011;75;48.784;9.364;2023-02-22T01:13:35;43.97;;;21.70;;
173;SDS011;75;48.784;9.364;2023-02-22T01:16:21;43.30;;;23.13;;
173;SDS011;75;48.784;9.364;2023-02-22T01:19:05;40.73;;;22.40;;
173;SDS011;75;48.784;9.364;2023-02-22T01:21:50;39.93;;;19.13;;
173;SDS011;75;48.784;9.364;2023-02-22T01:24:35;32.53;;;18.30;;
173;SDS011;75;48.784;9.364;2023-02-22T01:27:20;31.23;;;17.00;;
173;SDS011;75;48.784;9.364;2023-02-22T01:30:05;28.00;;;18.07;;
173;SDS011;75;48.784;9.364;2023-02-22T01:32:51;41.27;;;20.57;;
173;SDS011;75;48.784;9.364;2023-02-22T01:35:36;39.93;;;20.50;;
173;SDS011;75;48.784;9.364;2023-02-22T01:38:23;35.73;;;19.93;;
173;SDS011;75;48.784;9.364;2023-02-22T01:41:08;31.83;;;19.10;;
173;SDS011;75;48.784;9.364;2023-02-22T01:43:52;31.83;;;18.10;;
173;SDS011;75;48.784;9.364;2023-02-22T01:46:37;27.83;;;18.47;;
173;SDS011;75;48.784;9.364;2023-02-22T01:49:23;31.40;;;18.73;;
173;SDS011;75;48.784;9.364;2023-02-22T01:52:18;29.20;;;19.27;;
173;SDS011;75;48.784;9.364;2023-02-22T01:55:04;34.13;;;18.93;;
173;SDS011;75;48.784;9.364;2023-02-22T01:57:49;29.50;;;19.60;;
173;SDS011;75;48.784;9.364;2023-02-22T02:00:34;31.33;;;20.17;;
173;SDS011;75;48.784;9.364;2023-02-22T02:03:20;31.03;;;19.17;;
173;SDS011;75;48.784;9.364;2023-02-22T02:06:25;37.37;;;20.67;;
173;SDS011;75;48.784;9.364;2023-02-22T02:09:18;29.33;;;19.57;;
173;SDS011;75;48.784;9.364;2023-02-22T02:12:04;30.40;;;19.77;;
173;SDS011;75;48.784;9.364;2023-02-22T02:14:50;29.73;;;18.57;;
173;SDS011;75;48.784;9.364;2023-02-22T02:17:34;29.20;;;17.23;;
173;SDS011;75;48.784;9.364;2023-02-22T02:29:23;34.77;;;20.87;;
173;SDS011;75;48.784;9.364;2023-02-22T02:40:54;30.10;;;18.00;;
173;SDS011;75;48.784;9.364;2023-02-22T02:43:44;31.07;;;18.37;;
173;SDS011;75;48.784;9.364;2023-02-22T02:46:35;28.20;;;17.23;;
173;SDS011;75;48.784;9.364;2023-02-22T02:49:30;26.73;;;16.87;;
173;SDS011;75;48.784;9.364;2023-02-22T02:52:16;31.10;;;17.67;;
173;SDS011;75;48.784;9.364;2023-02-22T02:55:02;28.03;;;18.00;;
173;SDS011;75;48.784;9.364;2023-02-22T02:57:48;27.30;;;16.63;;
173;SDS011;75;48.784;9.364;2023-02-22T03:00:34;28.20;;;15.80;;
173;SDS011;75;48.784;9.364;2023-02-22T03:03:41;25.10;;;16.40;;
173;SDS011;75;48.784;9.364;2023-02-22T03:06:33;24.60;;;16.13;;
173;SDS011;75;48.784;9.364;2023-02-22T03:09:37;24.37;;;15.40;;
173;SDS011;75;48.784;9.364;2023-02-22T03:21:13;25.20;;;14.90;;
173;SDS011;75;48.784;9.364;2023-02-22T03:24:06;24.00;;;15.73;;
173;SDS011;75;48.784;9.364;2023-02-22T03:26:54;25.43;;;15.73;;
173;SDS011;75;48.784;9.364;2023-02-22T03:29:41;29.40;;;17.50;;
173;SDS011;75;48.784;9.364;2023-02-22T03:32:27;23.23;;;16.03;;
173;SDS011;75;48.784;9.364;2023-02-22T03:35:16;23.90;;;15.20;;
173;SDS011;75;48.784;9.364;2023-02-22T03:38:03;26.47;;;15.80;;
173;SDS011;75;48.784;9.364;2023-02-22T03:40:51;25.13;;;14.93;;
173;SDS011;75;48.784;9.364;2023-02-22T03:43:41;22.93;;;14.07;;
173;SDS011;75;48.784;9.364;2023-02-22T03:46:27;25.10;;;14.77;;
173;SDS011;75;48.784;9.364;2023-02-22T03:49:18;23.70;;;15.00;;
173;SDS011;75;48.784;9.364;2023-02-22T03:52:03;22.80;;;13.83;;
173;SDS011;75;48.784;9.364;2023-02-22T03:54:52;22.37;;;14.60;;
173;SDS011;75;48.784;9.364;2023-02-22T03:57:40;24.20;;;14.80;;
173;SDS011;75;48.784;9.364;2023-02-22T04:00:27;20.03;;;13.30;;
173;SDS011;75;48.784;9.364;2023-02-22T04:03:13;23.67;;;15.40;;
173;SDS011;75;48.784;9.364;2023-02-22T04:05:57;27.47;;;16.27;;
173;SDS011;75;48.784;9.364;2023-02-22T04:08:42;28.07;;;15.83;;
173;SDS011;75;48.784;9.364;2023-02-22T04:11:27;24.07;;;14.60;;
173;SDS011;75;48.784;9.364;2023-02-22T04:14:12;23.13;;;13.90;;
173;SDS011;75;48.784;9.364;2023-02-22T04:16:57;21.90;;;14.33;;
173;SDS011;75;48.784;9.364;2023-02-22T04:19:41;26.83;;;15.20;;
173;SDS011;75;48.784;9.364;2023-02-22T04:22:28;22.23;;;14.83;;
173;SDS011;75;48.784;9.364;2023-02-22T04:25:13;22.17;;;13.97;;
173;SDS011;75;48.784;9.364;2023-02-22T04:27:58;22.30;;;14.03;;
173;SDS011;75;48.784;9.364;2023-02-22T04:30:42;20.17;;;12.80;;
173;SDS011;75;48.784;9.364;2023-02-22T04:33:28;22.50;;;14.03;;
173;SDS011;75;48.784;9.364;2023-02-22T04:36:13;22.20;;;13.63;;
173;SDS011;75;48.784;9.364;2023-02-22T04:38:59;24.83;;;13.27;;
173;SDS011;75;48.784;9.364;2023-02-22T04:41:44;21.40;;;13.27;;
173;SDS011;75;48.784;9.364;2023-02-22T04:44:30;18.57;;;12.57;;
173;SDS011;75;48.784;9.364;2023-02-22T04:47:15;21.40;;;14.17;;
173;SDS011;75;48.784;9.364;2023-02-22T04:50:00;18.97;;;13.20;;
173;SDS011;75;48.784;9.364;2023-02-22T04:52:44;20.43;;;13.10;;
173;SDS011;75;48.784;9.364;2023-02-22T04:55:29;19.27;;;13.60;;
173;SDS011;75;48.784;9.364;2023-02-22T04:58:14;22.07;;;13.93;;
173;SDS011;75;48.784;9.364;2023-02-22T05:00:59;22.53;;;14.20;;
173;SDS011;75;48.784;9.364;2023-02-22T05:03:44;20.80;;;13.40;;
173;SDS011;75;48.784;9.364;2023-02-22T05:06:28;20.70;;;14.03;;
173;SDS011;75;48.784;9.364;2023-02-22T05:09:13;19.50;;;12.53;;
173;SDS011;75;48.784;9.364;2023-02-22T05:11:58;17.80;;;12.77;;
173;SDS011;75;48.784;9.364;2023-02-22T05:14:42;19.80;;;13.53;;
173;SDS011;75;48.784;9.364;2023-02-22T05:17:27;22.00;;;13.13;;
173;SDS011;75;48.784;9.364;2023-02-22T05:20:31;17.47;;;13.00;;
173;SDS011;75;48.784;9.364;2023-02-22T05:23:16;19.03;;;12.47;;
173;SDS011;75;48.784;9.364;2023-02-22T05:26:01;16.97;;;11.60;;
173;SDS011;75;48.784;9.364;2023-02-22T05:28:46;17.40;;;12.43;;
173;SDS011;75;48.784;9.364;2023-02-22T05:31:30;21.20;;;13.37;;
173;SDS011;75;48.784;9.364;2023-02-22T05:34:15;17.23;;;12.23;;
173;SDS011;75;48.784;9.364;2023-02-22T05:37:00;22.00;;;14.40;;
173;SDS011;75;48.784;9.364;2023-02-22T05:39:45;23.77;;;15.93;;
173;SDS011;75;48.784;9.364;2023-02-22T05:42:30;28.03;;;16.00;;
173;SDS011;75;48.784;9.364;2023-02-22T05:45:15;25.30;;;16.00;;
173;SDS011;75;48.784;9.364;2023-02-22T05:48:01;21.70;;;15.43;;
173;SDS011;75;48.784;9.364;2023-02-22T05:50:46;22.90;;;16.03;;
173;SDS011;75;48.784;9.364;2023-02-22T05:53:32;21.77;;;14.90;;
173;SDS011;75;48.784;9.364;2023-02-22T05:56:27;23.97;;;14.40;;
173;SDS011;75;48.784;9.364;2023-02-22T05:59:12;22.97;;;15.27;;
173;SDS011;75;48.784;9.364;2023-02-22T06:01:58;24.53;;;15.90;;
173;SDS011;75;48.784;9.364;2023-02-22T06:04:44;29.57;;;18.60;;
173;SDS011;75;48.784;9.364;2023-02-22T06:07:28;25.47;;;17.57;;
173;SDS011;75;48.784;9.364;2023-02-22T06:10:13;27.00;;;18.53;;
173;SDS011;75;48.784;9.364;2023-02-22T06:12:58;23.53;;;17.13;;
173;SDS011;75;48.784;9.364;2023-02-22T06:15:43;23.07;;;15.90;;
173;SDS011;75;48.784;9.364;2023-02-22T06:18:27;24.43;;;15.43;;
173;SDS011;75;48.784;9.364;2023-02-22T06:21:13;29.03;;;19.00;;
173;SDS011;75;48.784;9.364;2023-02-22T06:24:00;25.53;;;16.77;;
173;SDS011;75;48.784;9.364;2023-02-22T06:26:53;22.53;;;14.30;;
173;SDS011;75;48.784;9.364;2023-02-22T06:29:38;18.90;;;13.10;;
173;SDS011;75;48.784;9.364;2023-02-22T06:32:22;20.60;;;11.53;;
173;SDS011;75;48.784;9.364;2023-02-22T06:35:07;17.93;;;11.77;;
173;SDS011;75;48.784;9.364;2023-02-22T06:37:52;19.10;;;11.40;;
173;SDS011;75;48.784;9.364;2023-02-22T06:40:36;21.23;;;13.20;;
173;SDS011;75;48.784;9.364;2023-02-22T06:43:21;19.50;;;12.73;;
173;SDS011;75;48.784;9.364;2023-02-22T06:46:11;18.50;;;12.13;;
173;SDS011;75;48.784;9.364;2023-02-22T06:48:56;19.27;;;12.40;;
173;SDS011;75;48.784;9.364;2023-02-22T06:51:42;17.63;;;12.23;;
173;SDS011;75;48.784;9.364;2023-02-22T06:54:26;17.47;;;11.90;;
173;SDS011;75;48.784;9.364;2023-02-22T06:57:11;23.57;;;12.70;;
173;SDS011;75;48.784;9.364;2023-02-22T06:59:56;22.83;;;12.33;;
173;SDS011;75;48.784;9.364;2023-02-22T07:02:41;18.00;;;11.47;;
173;SDS011;75;48.784;9.364;2023-02-22T07:05:26;36.30;;;12.23;;
173;SDS011;75;48.784;9.364;2023-02-22T07:08:11;17.57;;;11.30;;
173;SDS011;75;48.784;9.364;2023-02-22T07:10:56;20.77;;;12.53;;
173;SDS011;75;48.784;9.364;2023-02-22T07:13:41;27.67;;;16.90;;
173;SDS011;75;48.784;9.364;2023-02-22T07:16:26;52.43;;;24.80;;
173;SDS011;75;48.784;9.364;2023-02-22T07:19:10;43.23;;;19.53;;
173;SDS011;75;48.784;9.364;2023-02-22T07:21:55;39.40;;;20.23;;
173;SDS011;75;48.784;9.364;2023-02-22T07:24:41;50.73;;;22.97;;
173;SDS011;75;48.784;9.364;2023-02-22T07:27:26;45.00;;;20.30;;
173;SDS011;75;48.784;9.364;2023-02-22T07:30:15;47.73;;;22.40;;
173;SDS011;75;48.784;9.364;2023-02-22T07:33:05;47.07;;;22.00;;
173;SDS011;75;48.784;9.364;2023-02-22T07:35:50;52.17;;;23.50;;
173;SDS011;75;48.784;9.364;2023-02-22T07:38:35;40.90;;;20.70;;
173;SDS011;75;48.784;9.364;2023-02-22T07:41:19;35.57;;;19.30;;
173;SDS011;75;48.784;9.364;2023-02-22T07:44:05;26.63;;;16.43;;
173;SDS011;75;48.784;9.364;2023-02-22T07:46:50;38.53;;;19.70;;
173;SDS011;75;48.784;9.364;2023-02-22T07:49:35;39.13;;;21.30;;
173;SDS011;75;48.784;9.364;2023-02-22T07:52:19;61.20;;;26.40;;
173;SDS011;75;48.784;9.364;2023-02-22T07:55:04;54.20;;;24.70;;
173;SDS011;75;48.784;9.364;2023-02-22T07:57:50;61.33;;;24.67;;
173;SDS011;75;48.784;9.364;2023-02-22T08:00:36;42.83;;;20.53;;
173;SDS011;75;48.784;9.364;2023-02-22T08:03:29;31.60;;;17.57;;
173;SDS011;75;48.784;9.364;2023-02-22T08:06:13;33.40;;;17.80;;
173;SDS011;75;48.784;9.364;2023-02-22T08:08:59;38.33;;;17.67;;
173;SDS011;75;48.784;9.364;2023-02-22T08:11:43;34.90;;;16.40;;
173;SDS011;75;48.784;9.364;2023-02-22T08:14:28;32.47;;;16.40;;
173;SDS011;75;48.784;9.364;2023-02-22T08:17:13;32.30;;;16.93;;
173;SDS011;75;48.784;9.364;2023-02-22T08:19:57;25.33;;;16.07;;
173;SDS011;75;48.784;9.364;2023-02-22T08:22:42;31.13;;;18.00;;
173;SDS011;75;48.784;9.364;2023-02-22T08:25:27;34.10;;;18.00;;
173;SDS011;75;48.784;9.364;2023-02-22T08:28:14;22.07;;;13.07;;
173;SDS011;75;48.784;9.364;2023-02-22T08:30:59;28.47;;;15.50;;
173;SDS011;75;48.784;9.364;2023-02-22T08:33:46;24.23;;;15.40;;
173;SDS011;75;48.784;9.364;2023-02-22T08:36:31;23.87;;;15.30;;
173;SDS011;75;48.784;9.364;2023-02-22T08:39:17;25.80;;;15.03;;
173;SDS011;75;48.784;9.364;2023-02-22T08:42:01;29.53;;;17.73;;
173;SDS011;75;48.784;9.364;2023-02-22T08:44:46;26.63;;;15.00;;
173;SDS011;75;48.784;9.364;2023-02-22T08:47:31;23.23;;;14.93;;
173;SDS011;75;48.784;9.364;2023-02-22T08:50:18;27.90;;;16.30;;
173;SDS011;75;48.784;9.364;2023-02-22T08:53:03;25.60;;;15.90;;
173;SDS011;75;48.784;9.364;2023-02-22T08:55:48;23.50;;;15.00;;
173;SDS011;75;48.784;9.364;2023-02-22T08:58:33;27.57;;;15.90;;
173;SDS011;75;48.784;9.364;2023-02-22T09:01:17;25.33;;;15.43;;
173;SDS011;75;48.784;9.364;2023-02-22T09:04:02;21.77;;;14.50;;
173;SDS011;75;48.784;9.364;2023-02-22T09:06:46;22.87;;;14.47;;
173;SDS011;75;48.784;9.364;2023-02-22T09:09:34;21.87;;;14.60;;
173;SDS011;75;48.784;9.364;2023-02-22T09:12:19;22.87;;;14.30;;
173;SDS011;75;48.784;9.364;2023-02-22T09:15:03;27.77;;;15.90;;
173;SDS011;75;48.784;9.364;2023-02-22T09:17:48;28.33;;;15.40;;
173;SDS011;75;48.784;9.364;2023-02-22T09:20:33;23.83;;;15.10;;
173;SDS011;75;48.784;9.364;2023-02-22T09:23:21;26.33;;;15.37;;
173;SDS011;75;48.784;9.364;2023-02-22T09:26:07;22.40;;;14.40;;
173;SDS011;75;48.784;9.364;2023-02-22T09:28:51;25.07;;;14.47;;
173;SDS011;75;48.784;9.364;2023-02-22T09:31:37;19.90;;;13.37;;
173;SDS011;75;48.784;9.364;2023-02-22T09:34:23;22.63;;;14.50;;
173;SDS011;75;48.784;9.364;2023-02-22T09:37:12;25.10;;;13.70;;
173;SDS011;75;48.784;9.364;2023-02-22T09:39:57;28.37;;;13.97;;
173;SDS011;75;48.784;9.364;2023-02-22T09:42:48;21.73;;;13.33;;
173;SDS011;75;48.784;9.364;2023-02-22T09:48:28;23.70;;;14.47;;
173;SDS011;75;48.784;9.364;2023-02-22T09:51:15;24.10;;;13.93;;
173;SDS011;75;48.784;9.364;2023-02-22T09:54:01;25.47;;;14.80;;
173;SDS011;75;48.784;9.364;2023-02-22T09:56:47;23.57;;;14.90;;
173;SDS011;75;48.784;9.364;2023-02-22T09:59:35;22.30;;;13.47;;
173;SDS011;75;48.784;9.364;2023-02-22T10:02:32;25.47;;;14.40;;
173;SDS011;75;48.784;9.364;2023-02-22T10:05:28;31.57;;;16.13;;
173;SDS011;75;48.784;9.364;2023-02-22T10:08:16;35.13;;;15.40;;
173;SDS011;75;48.784;9.364;2023-02-22T10:14:03;24.30;;;15.00;;
173;SDS011;75;48.784;9.364;2023-02-22T10:22:31;22.43;;;14.30;;
173;SDS011;75;48.784;9.364;2023-02-22T10:25:21;27.83;;;15.50;;
173;SDS011;75;48.784;9.364;2023-02-22T10:28:17;24.13;;;14.40;;
173;SDS011;75;48.784;9.364;2023-02-22T10:31:03;25.23;;;14.73;;
173;SDS011;75;48.784;9.364;2023-02-22T10:33:52;24.50;;;14.77;;
173;SDS011;75;48.784;9.364;2023-02-22T10:36:38;29.93;;;14.80;;
173;SDS011;75;48.784;9.364;2023-02-22T10:42:11;22.10;;;14.03;;
173;SDS011;75;48.784;9.364;2023-02-22T10:44:55;22.80;;;13.23;;
173;SDS011;75;48.784;9.364;2023-02-22T10:47:40;22.83;;;14.00;;
173;SDS011;75;48.784;9.364;2023-02-22T10:50:28;22.30;;;13.20;;
173;SDS011;75;48.784;9.364;2023-02-22T10:53:14;26.13;;;13.60;;
173;SDS011;75;48.784;9.364;2023-02-22T10:56:06;23.93;;;12.67;;
173;SDS011;75;48.784;9.364;2023-02-22T10:58:53;17.33;;;11.70;;
173;SDS011;75;48.784;9.364;2023-02-22T11:01:38;18.47;;;11.17;;
173;SDS011;75;48.784;9.364;2023-02-22T11:04:26;20.23;;;11.47;;
173;SDS011;75;48.784;9.364;2023-02-22T11:07:18;21.00;;;12.30;;
173;SDS011;75;48.784;9.364;2023-02-22T11:10:04;22.00;;;12.57;;
173;SDS011;75;48.784;9.364;2023-02-22T11:12:51;17.77;;;11.43;;
173;SDS011;75;48.784;9.364;2023-02-22T11:15:36;24.53;;;11.67;;
173;SDS011;75;48.784;9.364;2023-02-22T11:18:22;17.47;;;10.90;;
173;SDS011;75;48.784;9.364;2023-02-22T11:21:10;21.07;;;11.97;;
173;SDS011;75;48.784;9.364;2023-02-22T11:24:04;24.23;;;12.27;;
173;SDS011;75;48.784;9.364;2023-02-22T11:26:55;19.10;;;11.90;;
173;SDS011;75;48.784;9.364;2023-02-22T11:29:41;26.93;;;13.40;;
173;SDS011;75;48.784;9.364;2023-02-22T11:32:26;18.43;;;11.83;;
173;SDS011;75;48.784;9.364;2023-02-22T11:38:15;22.63;;;12.83;;
173;SDS011;75;48.784;9.364;2023-02-22T11:41:04;23.03;;;12.00;;
173;SDS011;75;48.784;9.364;2023-02-22T11:43:50;22.30;;;12.80;;
173;SDS011;75;48.784;9.364;2023-02-22T11:46:38;22.07;;;12.43;;
173;SDS011;75;48.784;9.364;2023-02-22T11:49:30;20.57;;;12.27;;
173;SDS011;75;48.784;9.364;2023-02-22T11:52:19;21.90;;;12.53;;
173;SDS011;75;48.784;9.364;2023-02-22T12:01:07;26.17;;;14.27;;
173;SDS011;75;48.784;9.364;2023-02-22T12:06:59;27.60;;;13.73;;
173;SDS011;75;48.784;9.364;2023-02-22T12:12:55;21.20;;;13.50;;
173;SDS011;75;48.784;9.364;2023-02-22T12:15:50;20.93;;;13.73;;
173;SDS011;75;48.784;9.364;2023-02-22T12:18:46;22.70;;;13.00;;
173;SDS011;75;48.784;9.364;2023-02-22T12:21:41;26.83;;;14.20;;
173;SDS011;75;48.784;9.364;2023-02-22T12:24:29;27.70;;;14.30;;
173;SDS011;75;48.784;9.364;2023-02-22T12:27:19;24.27;;;14.87;;
173;SDS011;75;48.784;9.364;2023-02-22T12:33:25;24.77;;;14.30;;
173;SDS011;75;48.784;9.364;2023-02-22T12:36:12;24.10;;;14.33;;
173;SDS011;75;48.784;9.364;2023-02-22T12:39:00;25.37;;;15.43;;
173;SDS011;75;48.784;9.364;2023-02-22T12:41:48;25.10;;;14.53;;
173;SDS011;75;48.784;9.364;2023-02-22T12:44:36;23.17;;;14.73;;
173;SDS011;75;48.784;9.364;2023-02-22T12:47:25;26.07;;;15.00;;
173;SDS011;75;48.784;9.364;2023-02-22T12:50:17;26.53;;;14.60;;
173;SDS011;75;48.784;9.364;2023-02-22T12:53:15;26.33;;;14.70;;
173;SDS011;75;48.784;9.364;2023-02-22T12:59:01;20.60;;;13.20;;
173;SDS011;75;48.784;9.364;2023-02-22T13:01:53;22.13;;;14.00;;
173;SDS011;75;48.784;9.364;2023-02-22T13:04:41;31.83;;;16.77;;
173;SDS011;75;48.784;9.364;2023-02-22T13:10:38;22.83;;;12.97;;
173;SDS011;75;48.784;9.364;2023-02-22T13:13:31;19.73;;;13.20;;
173;SDS011;75;48.784;9.364;2023-02-22T13:16:21;18.57;;;12.00;;
173;SDS011;75;48.784;9.364;2023-02-22T13:19:17;24.00;;;12.80;;
173;SDS011;75;48.784;9.364;2023-02-22T13:25:13;17.77;;;11.80;;
173;SDS011;75;48.784;9.364;2023-02-22T13:28:08;23.30;;;12.53;;
173;SDS011;75;48.784;9.364;2023-02-22T13:31:14;22.23;;;12.60;;
173;SDS011;75;48.784;9.364;2023-02-22T13:37:13;19.80;;;11.50;;
173;SDS011;75;48.784;9.364;2023-02-22T13:46:10;20.00;;;12.33;;
173;SDS011;75;48.784;9.364;2023-02-22T13:52:05;20.97;;;12.00;;
173;SDS011;75;48.784;9.364;2023-02-22T13:54:52;21.30;;;12.37;;
173;SDS011;75;48.784;9.364;2023-02-22T14:00:37;23.27;;;13.73;;
173;SDS011;75;48.784;9.364;2023-02-22T14:03:31;23.83;;;14.30;;
173;SDS011;75;48.784;9.364;2023-02-22T14:06:52;18.00;;;11.27;;
173;SDS011;75;48.784;9.364;2023-02-22T14:09:41;22.30;;;13.80;;
173;SDS011;75;48.784;9.364;2023-02-22T14:15:17;21.90;;;13.50;;
173;SDS011;75;48.784;9.364;2023-02-22T14:18:12;20.37;;;13.00;;
173;SDS011;75;48.784;9.364;2023-02-22T14:21:09;21.73;;;11.93;;
173;SDS011;75;48.784;9.364;2023-02-22T14:23:55;20.00;;;12.20;;
173;SDS011;75;48.784;9.364;2023-02-22T14:26:40;23.97;;;12.97;;
173;SDS011;75;48.784;9.364;2023-02-22T14:29:36;28.27;;;13.83;;
173;SDS011;75;48.784;9.364;2023-02-22T14:32:28;25.33;;;14.20;;
173;SDS011;75;48.784;9.364;2023-02-22T14:35:13;28.20;;;14.63;;
173;SDS011;75;48.784;9.364;2023-02-22T14:38:00;25.70;;;14.60;;
173;SDS011;75;48.784;9.364;2023-02-22T14:40:46;24.83;;;14.83;;
173;SDS011;75;48.784;9.364;2023-02-22T14:43:32;23.90;;;13.10;;
173;SDS011;75;48.784;9.364;2023-02-22T14:46:20;29.93;;;14.20;;
173;SDS011;75;48.784;9.364;2023-02-22T14:49:06;32.00;;;15.20;;
173;SDS011;75;48.784;9.364;2023-02-22T14:51:54;29.90;;;15.97;;
173;SDS011;75;48.784;9.364;2023-02-22T14:54:53;30.37;;;17.20;;
173;SDS011;75;48.784;9.364;2023-02-22T14:57:50;27.60;;;15.67;;
173;SDS011;75;48.784;9.364;2023-02-22T15:00:41;24.50;;;15.13;;
173;SDS011;75;48.784;9.364;2023-02-22T15:03:27;26.60;;;15.20;;
173;SDS011;75;48.784;9.364;2023-02-22T15:06:27;26.40;;;15.50;;
173;SDS011;75;48.784;9.364;2023-02-22T15:15:08;24.97;;;14.87;;
173;SDS011;75;48.784;9.364;2023-02-22T15:17:56;27.00;;;15.37;;
173;SDS011;75;48.784;9.364;2023-02-22T15:20:41;25.00;;;16.17;;
173;SDS011;75;48.784;9.364;2023-02-22T15:23:30;24.20;;;14.33;;
173;SDS011;75;48.784;9.364;2023-02-22T15:26:24;25.73;;;13.93;;
173;SDS011;75;48.784;9.364;2023-02-22T15:29:14;22.23;;;13.93;;
173;SDS011;75;48.784;9.364;2023-02-22T15:31:59;23.20;;;13.83;;
173;SDS011;75;48.784;9.364;2023-02-22T15:34:44;25.50;;;15.73;;
173;SDS011;75;48.784;9.364;2023-02-22T15:37:29;26.27;;;15.10;;
173;SDS011;75;48.784;9.364;2023-02-22T15:40:19;24.83;;;14.73;;
173;SDS011;75;48.784;9.364;2023-02-22T15:43:05;26.30;;;15.60;;
173;SDS011;75;48.784;9.364;2023-02-22T15:45:54;26.80;;;16.67;;
173;SDS011;75;48.784;9.364;2023-02-22T15:48:39;35.20;;;20.33;;
173;SDS011;75;48.784;9.364;2023-02-22T15:51:24;33.50;;;19.73;;
173;SDS011;75;48.784;9.364;2023-02-22T15:54:12;40.50;;;21.53;;
173;SDS011;75;48.784;9.364;2023-02-22T15:56:58;52.33;;;24.87;;
173;SDS011;75;48.784;9.364;2023-02-22T15:59:44;37.03;;;20.10;;
173;SDS011;75;48.784;9.364;2023-02-22T16:02:32;29.27;;;19.30;;
173;SDS011;75;48.784;9.364;2023-02-22T16:05:17;32.30;;;19.20;;
173;SDS011;75;48.784;9.364;2023-02-22T16:08:02;37.77;;;23.87;;
173;SDS011;75;48.784;9.364;2023-02-22T16:10:57;36.43;;;21.77;;
173;SDS011;75;48.784;9.364;2023-02-22T16:13:42;31.60;;;20.10;;
173;SDS011;75;48.784;9.364;2023-02-22T16:16:35;34.23;;;19.63;;
173;SDS011;75;48.784;9.364;2023-02-22T16:19:37;31.67;;;18.70;;
173;SDS011;75;48.784;9.364;2023-02-22T16:22:26;31.67;;;18.57;;
173;SDS011;75;48.784;9.364;2023-02-22T16:28:22;28.83;;;17.40;;
173;SDS011;75;48.784;9.364;2023-02-22T16:31:08;27.30;;;17.30;;
173;SDS011;75;48.784;9.364;2023-02-22T16:33:53;35.00;;;21.13;;
173;SDS011;75;48.784;9.364;2023-02-22T16:36:39;44.67;;;23.03;;
173;SDS011;75;48.784;9.364;2023-02-22T16:39:25;32.13;;;18.40;;
173;SDS011;75;48.784;9.364;2023-02-22T16:42:11;30.87;;;17.77;;
173;SDS011;75;48.784;9.364;2023-02-22T16:45:03;30.50;;;17.30;;
173;SDS011;75;48.784;9.364;2023-02-22T16:47:47;32.93;;;18.60;;
173;SDS011;75;48.784;9.364;2023-02-22T16:50:36;34.63;;;19.07;;
173;SDS011;75;48.784;9.364;2023-02-22T16:53:22;33.17;;;18.43;;
173;SDS011;75;48.784;9.364;2023-02-22T16:56:07;30.87;;;17.63;;
173;SDS011;75;48.784;9.364;2023-02-22T16:58:54;36.07;;;21.27;;
173;SDS011;75;48.784;9.364;2023-02-22T17:01:39;37.60;;;23.53;;
173;SDS011;75;48.784;9.364;2023-02-22T17:04:24;33.80;;;19.53;;
173;SDS011;75;48.784;9.364;2023-02-22T17:07:11;27.17;;;16.40;;
173;SDS011;75;48.784;9.364;2023-02-22T17:09:56;30.10;;;16.40;;
173;SDS011;75;48.784;9.364;2023-02-22T17:12:43;30.83;;;16.50;;
173;SDS011;75;48.784;9.364;2023-02-22T17:15:30;34.87;;;22.00;;
173;SDS011;75;48.784;9.364;2023-02-22T17:18:18;27.73;;;17.33;;
173;SDS011;75;48.784;9.364;2023-02-22T17:21:05;27.80;;;18.00;;
173;SDS011;75;48.784;9.364;2023-02-22T17:23:50;39.03;;;18.73;;
173;SDS011;75;48.784;9.364;2023-02-22T17:26:35;28.93;;;17.47;;
173;SDS011;75;48.784;9.364;2023-02-22T17:29:20;31.43;;;17.77;;
173;SDS011;75;48.784;9.364;2023-02-22T17:32:05;31.47;;;18.53;;
173;SDS011;75;48.784;9.364;2023-02-22T17:34:50;40.00;;;23.47;;
173;SDS011;75;48.784;9.364;2023-02-22T17:37:35;48.30;;;26.77;;
173;SDS011;75;48.784;9.364;2023-02-22T17:40:20;43.97;;;24.50;;
173;SDS011;75;48.784;9.364;2023-02-22T17:43:05;35.23;;;21.77;;
173;SDS011;75;48.784;9.364;2023-02-22T17:45:53;37.37;;;21.03;;
173;SDS011;75;48.784;9.364;2023-02-22T17:48:38;36.27;;;23.17;;
173;SDS011;75;48.784;9.364;2023-02-22T17:51:23;41.77;;;24.40;;
173;SDS011;75;48.784;9.364;2023-02-22T17:54:09;35.97;;;23.30;;
173;SDS011;75;48.784;9.364;2023-02-22T17:56:54;48.50;;;27.30;;
173;SDS011;75;48.784;9.364;2023-02-22T17:59:40;44.00;;;24.00;;
173;SDS011;75;48.784;9.364;2023-02-22T18:02:25;36.40;;;21.93;;
173;SDS011;75;48.784;9.364;2023-02-22T18:05:10;35.93;;;19.40;;
173;SDS011;75;48.784;9.364;2023-02-22T18:07:59;33.27;;;21.07;;
173;SDS011;75;48.784;9.364;2023-02-22T18:10:45;41.17;;;24.23;;
173;SDS011;75;48.784;9.364;2023-02-22T18:13:30;37.20;;;21.63;;
173;SDS011;75;48.784;9.364;2023-02-22T18:16:14;37.27;;;22.40;;
173;SDS011;75;48.784;9.364;2023-02-22T18:18:59;37.07;;;24.77;;
173;SDS011;75;48.784;9.364;2023-02-22T18:21:44;40.20;;;25.90;;
173;SDS011;75;48.784;9.364;2023-02-22T18:24:30;41.10;;;24.73;;
173;SDS011;75;48.784;9.364;2023-02-22T18:27:16;40.13;;;25.07;;
173;SDS011;75;48.784;9.364;2023-02-22T18:30:00;35.03;;;22.37;;
173;SDS011;75;48.784;9.364;2023-02-22T18:32:45;38.50;;;21.23;;
173;SDS011;75;48.784;9.364;2023-02-22T18:35:30;32.33;;;20.30;;
173;SDS011;75;48.784;9.364;2023-02-22T18:38:15;34.93;;;20.33;;
173;SDS011;75;48.784;9.364;2023-02-22T18:41:05;38.77;;;20.80;;
173;SDS011;75;48.784;9.364;2023-02-22T18:43:50;37.33;;;20.80;;
173;SDS011;75;48.784;9.364;2023-02-22T18:46:37;33.23;;;19.87;;
173;SDS011;75;48.784;9.364;2023-02-22T18:49:21;43.90;;;21.80;;
173;SDS011;75;48.784;9.364;2023-02-22T18:52:06;35.70;;;20.77;;
173;SDS011;75;48.784;9.364;2023-02-22T18:54:54;34.30;;;19.30;;
173;SDS011;75;48.784;9.364;2023-02-22T18:57:39;41.87;;;22.10;;
173;SDS011;75;48.784;9.364;2023-02-22T19:00:24;40.60;;;23.37;;
173;SDS011;75;48.784;9.364;2023-02-22T19:03:11;42.17;;;24.93;;
173;SDS011;75;48.784;9.364;2023-02-22T19:06:02;58.47;;;30.27;;
173;SDS011;75;48.784;9.364;2023-02-22T19:08:47;50.93;;;27.40;;
173;SDS011;75;48.784;9.364;2023-02-22T19:11:33;41.33;;;22.37;;